createdAt,value
2022-09-02T00:00:03.095Z,348
2022-09-02T00:01:04.576Z,340
2022-09-02T00:02:05.645Z,338
2022-09-02T00:03:06.912Z,337
2022-09-02T00:04:08.537Z,334
2022-09-02T00:05:09.558Z,334
2022-09-02T00:06:10.618Z,333
2022-09-02T00:07:11.536Z,324
2022-09-02T00:08:12.615Z,322
2022-09-02T00:09:13.575Z,320
2022-09-02T00:10:14.657Z,318
2022-09-02T00:11:16.675Z,315
2022-09-02T00:12:18.824Z,312
2022-09-02T00:13:20.807Z,311
2022-09-02T00:14:21.983Z,310
2022-09-02T00:15:24.235Z,692
2022-09-02T00:16:25.673Z,2932
2022-09-02T00:17:26.555Z,831
2022-09-02T00:18:27.595Z,383
2022-09-02T00:19:28.696Z,339
2022-09-02T00:20:30.535Z,331
2022-09-02T00:21:31.578Z,349
2022-09-02T00:22:32.696Z,278
2022-09-02T00:23:34.666Z,264
2022-09-02T00:24:36.735Z,260
2022-09-02T00:25:38.596Z,256
2022-09-02T00:26:39.515Z,254
2022-09-02T00:27:40.575Z,251
2022-09-02T00:28:44.259Z,251
2022-09-02T00:29:43.584Z,248
2022-09-02T00:30:44.635Z,247
2022-09-02T00:31:46.661Z,247
2022-09-02T00:32:47.736Z,246
2022-09-02T00:33:49.515Z,246
2022-09-02T00:34:50.625Z,257
2022-09-02T00:35:51.756Z,268
2022-09-02T00:36:53.538Z,267
2022-09-02T00:37:54.537Z,265
2022-09-02T00:38:55.621Z,265
2022-09-02T00:39:56.676Z,265
2022-09-02T00:40:58.655Z,263
2022-09-02T00:41:59.675Z,262
2022-09-02T00:43:01.801Z,262
2022-09-02T00:44:03.575Z,261
2022-09-02T00:45:04.743Z,260
2022-09-02T00:46:06.765Z,270
2022-09-02T00:47:08.955Z,338
2022-09-02T00:48:10.615Z,337
2022-09-02T00:49:11.596Z,334
2022-09-02T00:50:12.628Z,333
2022-09-02T00:51:13.717Z,331
2022-09-02T00:52:17.225Z,328
2022-09-02T00:53:18.892Z,327
2022-09-02T00:54:20.535Z,294
2022-09-02T00:55:21.696Z,638
2022-09-02T00:56:22.575Z,-1
2022-09-02T00:57:23.656Z,854
2022-09-02T00:58:24.915Z,415
2022-09-02T00:59:26.677Z,380
2022-09-02T01:03:50.153Z,893
2022-09-02T01:04:51.034Z,661
2022-09-02T01:05:52.072Z,728
2022-09-02T01:06:53.094Z,491
2022-09-02T01:07:54.123Z,-1
2022-09-02T01:08:56.093Z,-1
2022-09-02T01:09:57.233Z,-1
2022-09-02T01:10:59.354Z,-1
2022-09-02T01:12:01.474Z,-1
2022-09-02T01:13:03.173Z,-1
2022-09-02T01:14:04.374Z,-1
2022-09-02T01:15:06.078Z,-1
2022-09-02T01:16:07.564Z,-1
2022-09-02T01:17:09.141Z,-1
2022-09-02T01:18:10.373Z,-1
2022-09-02T01:19:12.055Z,-1
2022-09-02T01:20:13.217Z,-1
2022-09-02T01:21:15.424Z,-1
2022-09-02T01:22:32.053Z,-1
2022-09-02T01:23:34.723Z,-1
2022-09-02T01:24:34.273Z,-1
2022-09-02T01:25:36.354Z,-1
2022-09-02T01:26:38.213Z,-1
2022-09-02T01:27:40.235Z,823
2022-09-02T01:28:42.214Z,-1
2022-09-02T01:29:43.773Z,-1
2022-09-02T01:30:45.234Z,-1
2022-09-02T01:31:47.321Z,848
2022-09-02T01:32:49.195Z,992
2022-09-02T01:33:50.094Z,166
2022-09-02T01:34:51.073Z,125
2022-09-02T01:35:52.093Z,119
2022-09-02T01:36:53.114Z,120
2022-09-02T01:37:55.407Z,118
2022-09-02T01:38:55.402Z,118
2022-09-02T01:39:57.191Z,116
2022-09-02T01:40:58.360Z,115
2022-09-02T01:42:00.246Z,196
2022-09-02T01:43:02.446Z,155
2022-09-02T01:44:04.323Z,217
2022-09-02T01:45:06.333Z,260
2022-09-02T01:46:08.376Z,243
2022-09-02T01:47:10.113Z,209
2022-09-02T01:48:12.034Z,205
2022-09-02T01:49:13.034Z,192
2022-09-02T01:50:14.073Z,190
2022-09-02T01:51:15.113Z,187
2022-09-02T01:52:16.204Z,188
2022-09-02T01:53:17.092Z,188
2022-09-02T01:54:18.157Z,191
2022-09-02T01:55:19.294Z,188
2022-09-02T01:56:21.214Z,187
2022-09-02T01:57:24.134Z,185
2022-09-02T01:58:26.121Z,186
2022-09-02T01:59:27.290Z,184
2022-09-02T02:00:29.465Z,184
2022-09-02T02:01:31.235Z,185
2022-09-02T02:02:32.333Z,185
2022-09-02T02:03:34.214Z,185
2022-09-02T02:04:35.283Z,187
2022-09-02T02:05:37.333Z,185
2022-09-02T02:06:39.193Z,184
2022-09-02T02:07:41.174Z,190
2022-09-02T02:08:42.174Z,188
2022-09-02T02:09:43.174Z,188
2022-09-02T02:10:44.244Z,334
2022-09-02T02:11:46.354Z,329
2022-09-02T02:12:48.173Z,322
2022-09-02T02:13:49.014Z,309
2022-09-02T02:14:50.075Z,312
2022-09-02T02:15:51.293Z,305
2022-09-02T02:16:53.173Z,291
2022-09-02T02:17:54.275Z,287
2022-09-02T02:18:57.213Z,296
2022-09-02T02:19:58.273Z,281
2022-09-02T02:21:00.133Z,315
2022-09-02T02:22:01.333Z,321
2022-09-02T02:23:03.136Z,338
2022-09-02T02:24:04.276Z,330
2022-09-02T02:25:06.219Z,320
2022-09-02T02:26:07.335Z,316
2022-09-02T02:27:09.376Z,311
2022-09-02T02:28:11.373Z,311
2022-09-02T02:29:13.094Z,309
2022-09-02T02:30:14.160Z,309
2022-09-02T02:31:15.279Z,429
2022-09-02T02:32:17.256Z,404
2022-09-02T02:33:19.199Z,383
2022-09-02T02:34:20.213Z,380
2022-09-02T02:35:21.173Z,377
2022-09-02T02:36:22.467Z,372
2022-09-02T02:37:25.576Z,547
2022-09-02T02:38:26.234Z,371
2022-09-02T02:39:28.314Z,300
2022-09-02T02:40:30.239Z,237
2022-09-02T02:41:31.214Z,151
2022-09-02T02:42:32.076Z,135
2022-09-02T02:43:33.135Z,128
2022-09-02T02:44:34.282Z,334
2022-09-02T02:45:36.215Z,449
2022-09-02T02:46:37.649Z,564
2022-09-02T02:47:39.233Z,513
2022-09-02T02:48:40.094Z,487
2022-09-02T02:49:41.234Z,438
2022-09-02T02:50:42.462Z,393
2022-09-02T02:51:44.254Z,395
2022-09-02T02:52:45.954Z,410
2022-09-02T02:53:48.274Z,879
2022-09-02T02:54:50.283Z,984
2022-09-02T02:55:52.374Z,881
2022-09-02T02:56:54.253Z,557
2022-09-02T02:57:56.294Z,586
2022-09-02T02:58:58.154Z,432
2022-09-02T02:59:59.274Z,332
2022-09-02T03:01:00.259Z,286
2022-09-02T03:02:02.411Z,287
2022-09-02T03:03:04.114Z,288
2022-09-02T03:04:05.194Z,292
2022-09-02T03:05:06.314Z,292
2022-09-02T03:06:08.253Z,296
2022-09-02T03:07:09.214Z,297
2022-09-02T03:08:10.174Z,298
2022-09-02T03:09:12.295Z,298
2022-09-02T03:10:14.133Z,298
2022-09-02T03:11:15.334Z,276
2022-09-02T03:12:17.173Z,275
2022-09-02T03:13:18.274Z,276
2022-09-02T03:14:19.274Z,267
2022-09-02T03:15:21.215Z,267
2022-09-02T03:16:22.450Z,267
2022-09-02T03:17:24.234Z,267
2022-09-02T03:18:26.233Z,270
2022-09-02T03:19:27.214Z,269
2022-09-02T03:20:28.274Z,270
2022-09-02T03:21:30.273Z,273
2022-09-02T03:22:32.300Z,273
2022-09-02T03:23:34.334Z,274
2022-09-02T03:24:36.194Z,275
2022-09-02T03:25:37.161Z,269
2022-09-02T03:26:38.353Z,269
2022-09-02T03:27:40.434Z,270
2022-09-02T03:28:42.160Z,271
2022-09-02T03:29:43.322Z,273
2022-09-02T03:30:45.214Z,273
2022-09-02T03:31:46.325Z,274
2022-09-02T03:32:47.274Z,275
2022-09-02T03:33:49.214Z,273
2022-09-02T03:34:50.278Z,274
2022-09-02T03:35:52.315Z,275
2022-09-02T03:36:54.393Z,276
2022-09-02T03:37:56.254Z,279
2022-09-02T03:38:58.255Z,274
2022-09-02T03:39:59.276Z,274
2022-09-02T03:41:00.294Z,275
2022-09-02T03:42:02.394Z,275
2022-09-02T03:43:04.216Z,275
2022-09-02T03:44:05.693Z,275
2022-09-02T03:45:07.434Z,276
2022-09-02T03:46:09.609Z,277
2022-09-02T03:47:11.235Z,277
2022-09-02T03:48:12.173Z,268
2022-09-02T03:49:13.894Z,266
2022-09-02T03:50:15.433Z,267
2022-09-02T03:51:17.216Z,266
2022-09-02T03:52:18.161Z,266
2022-09-02T03:53:19.689Z,269
2022-09-02T03:54:21.234Z,269
2022-09-02T03:55:22.234Z,270
2022-09-02T03:56:23.636Z,271
2022-09-02T03:57:25.553Z,270
2022-09-02T03:58:27.182Z,273
2022-09-02T03:59:28.134Z,273
2022-09-02T04:00:29.175Z,273
2022-09-02T04:01:34.549Z,274
2022-09-02T04:02:31.327Z,273
2022-09-02T04:03:32.281Z,269
2022-09-02T04:04:33.322Z,269
2022-09-02T04:05:35.352Z,267
2022-09-02T04:06:37.209Z,263
2022-09-02T04:07:38.324Z,262
2022-09-02T04:08:40.293Z,264
2022-09-02T04:09:46.036Z,263
2022-09-02T04:10:44.274Z,264
2022-09-02T04:11:45.193Z,263
2022-09-02T04:12:46.182Z,263
2022-09-02T04:13:47.175Z,225
2022-09-02T04:14:48.254Z,223
2022-09-02T04:15:49.662Z,222
2022-09-02T04:16:52.153Z,223
2022-09-02T04:17:53.336Z,223
2022-09-02T04:18:55.234Z,223
2022-09-02T04:19:57.154Z,225
2022-09-02T04:20:58.334Z,224
2022-09-02T04:22:00.834Z,224
2022-09-02T04:23:02.263Z,225
2022-09-02T04:24:19.158Z,224
2022-09-02T04:25:20.163Z,223
2022-09-02T04:26:21.134Z,224
2022-09-02T04:27:22.195Z,226
2022-09-02T04:28:23.412Z,225
2022-09-02T04:29:25.833Z,224
2022-09-02T04:30:27.442Z,223
2022-09-02T04:31:29.249Z,223
2022-09-02T04:32:31.401Z,224
2022-09-02T04:33:33.163Z,222
2022-09-02T04:34:34.256Z,222
2022-09-02T04:35:35.254Z,222
2022-09-02T04:36:36.265Z,222
2022-09-02T04:37:37.375Z,222
2022-09-02T04:38:39.254Z,223
2022-09-02T04:39:41.283Z,224
2022-09-02T04:40:43.400Z,224
2022-09-02T04:41:48.114Z,225
2022-09-02T04:42:49.306Z,225
2022-09-02T04:43:51.435Z,225
2022-09-02T04:44:53.433Z,225
2022-09-02T04:45:55.531Z,226
2022-09-02T04:46:57.554Z,225
2022-09-02T04:47:59.334Z,225
2022-09-02T04:49:01.293Z,225
2022-09-02T04:50:02.935Z,226
2022-09-02T04:51:04.963Z,226
2022-09-02T04:52:06.249Z,226
2022-09-02T04:53:07.402Z,223
2022-09-02T04:54:09.757Z,220
2022-09-02T04:55:11.458Z,220
2022-09-02T04:56:13.361Z,222
2022-09-02T04:57:15.413Z,223
2022-09-02T04:58:17.601Z,221
2022-09-02T04:59:19.614Z,222
2022-09-02T05:00:21.450Z,222
2022-09-02T05:01:23.277Z,221
2022-09-02T05:02:24.461Z,222
2022-09-02T05:03:26.316Z,223
2022-09-02T05:04:28.413Z,223
2022-09-02T05:05:31.194Z,223
2022-09-02T05:06:32.294Z,223
2022-09-02T05:07:34.874Z,223
2022-09-02T05:08:36.858Z,222
2022-09-02T05:09:41.076Z,229
2022-09-02T05:10:47.652Z,241
2022-09-02T05:11:50.894Z,265
2022-09-02T05:12:53.304Z,281
2022-09-02T05:13:57.116Z,279
2022-09-02T05:15:03.215Z,279
2022-09-02T05:16:08.134Z,264
2022-09-02T05:17:11.457Z,260
2022-09-02T05:18:14.934Z,259
2022-09-02T05:19:18.514Z,256
2022-09-02T05:20:22.773Z,253
2022-09-02T05:21:26.403Z,251
2022-09-02T05:22:28.374Z,247
2022-09-02T05:23:32.174Z,247
2022-09-02T05:24:35.801Z,249
2022-09-02T05:25:40.094Z,247
2022-09-02T05:26:43.217Z,247
2022-09-02T05:27:47.034Z,248
2022-09-02T05:28:50.419Z,247
2022-09-02T05:29:52.215Z,248
2022-09-02T05:30:53.393Z,249
2022-09-02T05:31:55.993Z,250
2022-09-02T05:32:57.413Z,238
2022-09-02T05:33:59.453Z,238
2022-09-02T05:35:16.314Z,238
2022-09-02T05:36:18.352Z,239
2022-09-02T05:37:19.493Z,239
2022-09-02T05:38:21.374Z,233
2022-09-02T05:39:23.510Z,230
2022-09-02T05:40:25.531Z,229
2022-09-02T05:41:27.376Z,226
2022-09-02T05:42:29.393Z,227
2022-09-02T05:43:31.813Z,229
2022-09-02T05:44:33.314Z,230
2022-09-02T05:45:34.323Z,232
2022-09-02T05:46:35.402Z,232
2022-09-02T05:47:36.402Z,232
2022-09-02T05:48:38.596Z,232
2022-09-02T05:49:40.435Z,230
2022-09-02T05:50:42.339Z,229
2022-09-02T05:51:44.421Z,228
2022-09-02T05:52:47.034Z,229
2022-09-02T05:53:49.081Z,230
2022-09-02T05:54:52.379Z,229
2022-09-02T05:55:55.821Z,229
2022-09-02T05:56:58.169Z,228
2022-09-02T05:58:01.773Z,227
2022-09-02T05:59:07.503Z,229
2022-09-02T06:00:09.975Z,229
2022-09-02T06:01:11.427Z,229
2022-09-02T06:02:13.550Z,223
2022-09-02T06:03:16.405Z,223
2022-09-02T06:04:20.237Z,224
2022-09-02T06:05:23.673Z,224
2022-09-02T06:06:27.682Z,224
2022-09-02T06:07:32.157Z,224
2022-09-02T06:08:36.134Z,220
2022-09-02T06:09:40.894Z,222
2022-09-02T06:10:45.694Z,219
2022-09-02T06:11:48.657Z,216
2022-09-02T06:12:52.065Z,216
2022-09-02T06:13:55.934Z,217
2022-09-02T06:14:58.433Z,217
2022-09-02T06:16:00.402Z,215
2022-09-02T06:17:04.587Z,217
2022-09-02T06:18:06.245Z,218
2022-09-02T06:19:07.794Z,218
2022-09-02T06:20:11.305Z,218
2022-09-02T06:21:13.879Z,219
2022-09-02T06:22:17.513Z,220
2022-09-02T06:23:19.434Z,220
2022-09-02T06:24:21.290Z,219
2022-09-02T06:25:23.593Z,220
2022-09-02T06:26:29.394Z,219
2022-09-02T06:27:35.510Z,221
2022-09-02T06:28:39.933Z,220
2022-09-02T06:29:41.944Z,222
2022-09-02T06:30:47.462Z,390
2022-09-02T06:31:51.893Z,276
2022-09-02T06:32:56.353Z,257
2022-09-02T06:33:59.395Z,257
2022-09-02T06:35:03.631Z,255
2022-09-02T06:36:09.752Z,260
2022-09-02T06:37:13.482Z,255
2022-09-02T06:38:15.479Z,249
2022-09-02T06:39:17.734Z,248
2022-09-02T06:40:19.526Z,247
2022-09-02T06:41:21.513Z,247
2022-09-02T06:42:38.272Z,246
2022-09-02T06:43:42.555Z,247
2022-09-02T06:44:43.196Z,241
2022-09-02T06:45:49.235Z,239
2022-09-02T06:46:54.114Z,240
2022-09-02T06:47:54.721Z,238
2022-09-02T06:48:57.449Z,234
2022-09-02T06:50:02.240Z,232
2022-09-02T06:51:04.593Z,236
2022-09-02T06:52:07.435Z,237
2022-09-02T06:53:11.915Z,237
2022-09-02T06:54:15.513Z,237
2022-09-02T06:55:17.442Z,239
2022-09-02T06:56:20.684Z,239
2022-09-02T06:57:31.309Z,238
2022-09-02T06:58:31.334Z,238
2022-09-02T06:59:33.355Z,239
2022-09-02T07:00:34.533Z,241
2022-09-02T07:01:36.541Z,241
2022-09-02T07:02:38.522Z,241
2022-09-02T07:03:40.954Z,240
2022-09-02T07:04:42.320Z,237
2022-09-02T07:05:43.354Z,236
2022-09-02T07:06:45.355Z,235
2022-09-02T07:07:46.414Z,235
2022-09-02T07:08:49.174Z,235
2022-09-02T07:09:50.794Z,237
2022-09-02T07:10:52.594Z,238
2022-09-02T07:11:54.794Z,238
2022-09-02T07:12:56.584Z,237
2022-09-02T07:13:58.474Z,238
2022-09-02T07:15:02.194Z,236
2022-09-02T07:16:05.534Z,237
2022-09-02T07:17:07.604Z,256
2022-09-02T07:18:09.454Z,264
2022-09-02T07:19:14.214Z,264
2022-09-02T07:20:13.274Z,264
2022-09-02T07:21:14.415Z,263
2022-09-02T07:22:18.028Z,261
2022-09-02T07:23:18.577Z,259
2022-09-02T07:24:20.444Z,259
2022-09-02T07:25:22.394Z,259
2022-09-02T07:26:24.434Z,259
2022-09-02T07:27:26.374Z,259
2022-09-02T07:28:28.440Z,262
2022-09-02T07:29:30.533Z,264
2022-09-02T07:30:32.377Z,262
2022-09-02T07:31:33.289Z,258
2022-09-02T07:32:36.059Z,264
2022-09-02T07:33:39.515Z,261
2022-09-02T07:34:41.474Z,261
2022-09-02T07:35:43.314Z,261
2022-09-02T07:36:44.825Z,259
2022-09-02T07:37:52.106Z,259
2022-09-02T07:38:54.523Z,263
2022-09-02T07:39:56.493Z,259
2022-09-02T07:40:58.421Z,257
2022-09-02T07:42:07.526Z,262
2022-09-02T07:43:09.274Z,260
2022-09-02T07:44:18.036Z,258
2022-09-02T07:45:23.114Z,261
2022-09-02T07:46:34.925Z,260
2022-09-02T07:47:36.936Z,260
2022-09-02T07:48:38.306Z,258
2022-09-02T07:50:41.734Z,258
2022-09-02T07:51:43.444Z,264
2022-09-02T07:52:45.374Z,271
2022-09-02T07:53:46.395Z,259
2022-09-02T07:54:47.394Z,257
2022-09-02T07:55:48.442Z,268
2022-09-02T07:56:50.341Z,257
2022-09-02T07:57:51.594Z,257
2022-09-02T07:58:53.404Z,255
2022-09-02T07:59:54.380Z,253
2022-09-02T08:00:55.815Z,254
2022-09-02T08:01:57.916Z,255
2022-09-02T08:03:14.314Z,254
2022-09-02T08:04:15.374Z,253
2022-09-02T08:05:16.394Z,251
2022-09-02T08:06:21.903Z,329
2022-09-02T08:07:20.414Z,283
2022-09-02T08:08:22.334Z,289
2022-09-02T08:09:23.535Z,288
2022-09-02T08:10:25.656Z,298
2022-09-02T08:11:27.393Z,323
2022-09-02T08:12:29.377Z,326
2022-09-02T08:13:30.465Z,317
2022-09-02T08:14:32.477Z,318
2022-09-02T08:15:34.554Z,322
2022-09-02T08:16:36.779Z,324
2022-09-02T08:17:38.355Z,324
2022-09-02T08:18:39.454Z,329
2022-09-02T08:19:41.374Z,330
2022-09-02T08:20:42.413Z,331
2022-09-02T08:21:44.473Z,332
2022-09-02T08:22:48.880Z,334
2022-09-02T08:23:48.608Z,340
2022-09-02T08:24:50.569Z,342
2022-09-02T08:25:52.382Z,342
2022-09-02T08:26:53.475Z,342
2022-09-02T08:28:58.454Z,344
2022-09-02T08:30:01.134Z,349
2022-09-02T08:31:05.576Z,347
2022-09-02T08:32:07.539Z,344
2022-09-02T08:33:09.378Z,342
2022-09-02T08:34:10.438Z,343
2022-09-02T08:35:12.475Z,340
2022-09-02T08:36:14.453Z,338
2022-09-02T08:37:17.417Z,329
2022-09-02T08:38:18.457Z,327
2022-09-02T08:39:20.550Z,325
2022-09-02T08:40:22.446Z,325
2022-09-02T08:41:23.374Z,326
2022-09-02T08:42:24.501Z,327
2022-09-02T08:43:26.474Z,331
2022-09-02T08:44:28.535Z,327
2022-09-02T08:45:30.540Z,327
2022-09-02T08:46:32.475Z,323
2022-09-02T08:47:34.353Z,324
2022-09-02T08:48:35.433Z,328
2022-09-02T08:49:38.234Z,330
2022-09-02T08:50:39.554Z,304
2022-09-02T08:51:41.713Z,298
2022-09-02T08:52:43.314Z,299
2022-09-02T08:53:44.373Z,301
2022-09-02T08:54:45.573Z,297
2022-09-02T08:55:47.574Z,297
2022-09-02T08:56:49.533Z,297
2022-09-02T08:57:52.192Z,349
2022-09-02T08:58:55.294Z,341
2022-09-02T08:59:55.795Z,340
2022-09-02T09:00:57.667Z,386
2022-09-02T09:02:00.896Z,365
2022-09-02T09:03:01.294Z,367
2022-09-02T09:04:02.513Z,354
2022-09-02T09:05:04.553Z,348
2022-09-02T09:06:06.473Z,347
2022-09-02T09:07:08.481Z,348
2022-09-02T09:08:12.317Z,347
2022-09-02T09:09:12.439Z,342
2022-09-02T09:10:14.397Z,341
2022-09-02T09:11:16.853Z,357
2022-09-02T09:12:18.861Z,347
2022-09-02T09:13:20.577Z,333
2022-09-02T09:14:22.483Z,333
2022-09-02T09:15:24.394Z,-1
2022-09-02T09:16:25.505Z,-1
2022-09-02T09:17:27.647Z,-1
2022-09-02T09:18:29.382Z,-1
2022-09-02T09:19:30.354Z,-1
2022-09-02T09:20:31.552Z,-1
2022-09-02T09:21:33.574Z,-1
2022-09-02T09:22:35.494Z,-1
2022-09-02T09:23:37.513Z,-1
2022-09-02T09:24:39.375Z,-1
2022-09-02T09:25:40.493Z,-1
2022-09-02T09:26:42.513Z,-1
2022-09-02T09:27:44.474Z,-1
2022-09-02T09:28:46.574Z,-1
2022-09-02T09:29:48.473Z,-1
2022-09-02T09:30:50.454Z,-1
2022-09-02T09:31:52.509Z,-1
2022-09-02T09:32:54.515Z,-1
2022-09-02T09:33:56.573Z,-1
2022-09-02T09:34:58.576Z,-1
2022-09-02T09:36:00.373Z,-1
2022-09-02T09:37:01.542Z,-1
2022-09-02T09:38:03.729Z,-1
2022-09-02T09:39:05.514Z,-1
2022-09-02T09:40:07.715Z,-1
2022-09-02T09:41:09.656Z,-1
2022-09-02T09:42:11.486Z,-1
2022-09-02T09:43:15.041Z,-1
2022-09-02T09:44:15.514Z,-1
2022-09-02T09:45:18.058Z,-1
2022-09-02T09:46:19.635Z,-1
2022-09-02T09:47:21.621Z,-1
2022-09-02T09:48:23.461Z,-1
2022-09-02T09:49:25.373Z,-1
2022-09-02T09:50:26.536Z,-1
2022-09-02T09:51:28.434Z,-1
2022-09-02T09:52:29.699Z,-1
2022-09-02T09:53:31.533Z,-1
2022-09-02T09:54:33.414Z,-1
2022-09-02T09:55:39.388Z,-1
2022-09-02T09:56:37.776Z,-1
2022-09-02T09:57:39.534Z,-1
2022-09-02T09:58:41.675Z,-1
2022-09-02T09:59:43.555Z,-1
2022-09-02T10:00:45.757Z,-1
2022-09-02T10:01:47.504Z,-1
2022-09-02T10:02:48.793Z,-1
2022-09-02T10:03:50.368Z,-1
2022-09-02T10:04:51.393Z,-1
2022-09-02T10:05:52.513Z,-1
2022-09-02T10:06:54.413Z,-1
2022-09-02T10:07:56.196Z,-1
2022-09-02T10:08:57.773Z,-1
2022-09-02T10:09:59.673Z,-1
2022-09-02T10:11:01.593Z,-1
2022-09-02T10:12:03.574Z,-1
2022-09-02T10:13:05.705Z,-1
2022-09-02T10:14:07.857Z,-1
2022-09-02T10:15:10.095Z,-1
2022-09-02T10:16:11.527Z,-1
2022-09-02T10:17:12.661Z,-1
2022-09-02T10:18:14.866Z,-1
2022-09-02T10:19:16.913Z,-1
2022-09-02T10:20:19.169Z,-1
2022-09-02T10:21:20.674Z,-1
2022-09-02T10:22:22.658Z,-1
2022-09-02T10:23:24.595Z,-1
2022-09-02T10:24:27.075Z,-1
2022-09-02T10:25:28.553Z,-1
2022-09-02T10:26:30.636Z,-1
2022-09-02T10:27:32.474Z,-1
2022-09-02T10:28:33.576Z,-1
2022-09-02T10:29:35.561Z,-1
2022-09-02T10:30:37.577Z,-1
2022-09-02T10:31:40.018Z,-1
2022-09-02T10:32:41.435Z,-1
2022-09-02T10:33:43.554Z,-1
2022-09-02T10:34:45.616Z,-1
2022-09-02T10:35:47.434Z,-1
2022-09-02T10:36:48.513Z,-1
2022-09-02T10:37:50.426Z,-1
2022-09-02T10:38:51.434Z,-1
2022-09-02T10:39:52.761Z,-1
2022-09-02T10:40:54.797Z,-1
2022-09-02T10:41:56.674Z,-1
2022-09-02T10:42:58.573Z,-1
2022-09-02T10:44:00.820Z,-1
2022-09-02T10:45:02.817Z,-1
2022-09-02T10:46:04.473Z,-1
2022-09-02T10:47:05.872Z,-1
2022-09-02T10:48:07.597Z,-1
2022-09-02T10:49:10.632Z,-1
2022-09-02T10:50:12.759Z,-1
2022-09-02T10:51:14.393Z,-1
2022-09-02T10:52:15.587Z,-1
2022-09-02T10:53:17.573Z,-1
2022-09-02T10:54:19.449Z,-1
2022-09-02T10:55:20.853Z,-1
2022-09-02T10:56:22.693Z,-1
2022-09-02T10:57:24.678Z,900
2022-09-02T10:58:26.435Z,895
2022-09-02T10:59:28.034Z,-1
2022-09-02T11:00:43.923Z,-1
2022-09-02T11:01:45.653Z,-1
2022-09-02T11:02:47.593Z,-1
2022-09-02T11:03:49.848Z,-1
2022-09-02T11:04:51.515Z,-1
2022-09-02T11:05:53.555Z,-1
2022-09-02T11:07:03.745Z,-1
2022-09-02T11:07:57.481Z,-1
2022-09-02T11:09:13.683Z,-1
2022-09-02T11:10:15.833Z,-1
2022-09-02T11:11:17.620Z,-1
2022-09-02T11:12:19.554Z,-1
2022-09-02T11:13:21.412Z,-1
2022-09-02T11:14:22.953Z,-1
2022-09-02T11:15:24.572Z,-1
2022-09-02T11:16:26.763Z,-1
2022-09-02T11:17:28.493Z,-1
2022-09-02T11:18:30.453Z,-1
2022-09-02T11:19:31.513Z,886
2022-09-02T11:20:33.693Z,-1
2022-09-02T11:21:35.633Z,-1
2022-09-02T11:22:37.554Z,-1
2022-09-02T11:23:40.314Z,-1
2022-09-02T11:24:44.563Z,-1
2022-09-02T11:25:43.513Z,900
2022-09-02T11:26:45.707Z,992
2022-09-02T11:27:47.553Z,992
2022-09-02T11:28:49.542Z,992
2022-09-02T11:29:51.439Z,992
2022-09-02T11:30:53.420Z,991
2022-09-02T11:31:54.641Z,992
2022-09-02T11:32:56.662Z,992
2022-09-02T11:33:58.503Z,992
2022-09-02T11:34:59.542Z,991
2022-09-02T11:36:01.494Z,992
2022-09-02T11:37:02.596Z,992
2022-09-02T11:38:04.533Z,992
2022-09-02T11:39:06.721Z,992
2022-09-02T11:40:30.822Z,992
2022-09-02T11:42:11.783Z,992
2022-09-02T11:43:13.497Z,991
2022-09-02T11:44:14.573Z,993
2022-09-02T11:45:16.734Z,992
2022-09-02T11:46:18.758Z,992
2022-09-02T11:47:20.453Z,992
2022-09-02T11:48:21.573Z,992
2022-09-02T11:49:23.533Z,992
2022-09-02T11:50:24.612Z,992
2022-09-02T11:51:26.703Z,992
2022-09-02T11:52:28.599Z,992
2022-09-02T11:53:30.545Z,992
2022-09-02T11:54:32.821Z,992
2022-09-02T11:55:34.595Z,992
2022-09-02T11:56:36.533Z,992
2022-09-02T11:57:37.633Z,992
2022-09-02T11:58:40.673Z,992
2022-09-02T11:59:42.473Z,992
2022-09-02T12:00:43.492Z,992
2022-09-02T12:01:44.573Z,992
2022-09-02T12:02:50.534Z,992
2022-09-02T12:04:27.451Z,992
2022-09-02T12:05:00.173Z,992
2022-09-02T12:05:56.639Z,992
2022-09-02T12:06:58.688Z,992
2022-09-02T12:08:00.455Z,992
2022-09-02T12:09:02.473Z,992
2022-09-02T12:10:04.433Z,992
2022-09-02T12:11:06.546Z,992
2022-09-02T12:12:08.494Z,992
2022-09-02T12:13:10.394Z,992
2022-09-02T12:14:11.355Z,992
2022-09-02T12:15:12.573Z,992
2022-09-02T12:16:14.539Z,992
2022-09-02T12:17:16.475Z,992
2022-09-02T12:18:18.553Z,992
2022-09-02T12:19:20.515Z,992
2022-09-02T12:20:22.562Z,992
2022-09-02T12:21:24.313Z,992
2022-09-02T12:22:25.413Z,993
2022-09-02T12:23:27.854Z,992
2022-09-02T12:24:29.553Z,992
2022-09-02T12:25:32.052Z,992
2022-09-02T12:26:33.613Z,992
2022-09-02T12:27:38.236Z,992
2022-09-02T12:28:39.393Z,992
2022-09-02T12:29:41.434Z,992
2022-09-02T12:30:43.847Z,992
2022-09-02T12:31:45.941Z,992
2022-09-02T12:32:47.934Z,991
2022-09-02T12:34:04.982Z,992
2022-09-02T12:35:06.721Z,992
2022-09-02T12:36:08.521Z,992
2022-09-02T12:37:10.421Z,992
2022-09-02T12:38:13.154Z,992
2022-09-02T12:39:14.561Z,992
2022-09-02T12:40:16.941Z,992
2022-09-02T12:41:18.974Z,992
2022-09-02T12:42:20.280Z,992
2022-09-02T12:43:21.402Z,992
2022-09-02T12:44:22.374Z,897
2022-09-02T12:45:26.784Z,691
2022-09-02T12:46:25.364Z,806
2022-09-02T12:47:27.474Z,992
2022-09-02T12:48:37.876Z,992
2022-09-02T12:49:31.515Z,992
2022-09-02T12:50:33.886Z,992
2022-09-02T12:51:35.817Z,992
2022-09-02T12:52:42.921Z,992
2022-09-02T12:53:45.433Z,991
2022-09-02T12:54:47.845Z,992
2022-09-02T12:55:50.615Z,992
2022-09-02T12:56:52.913Z,993
2022-09-02T12:57:54.313Z,992
2022-09-02T12:59:01.811Z,992
2022-09-02T12:59:59.494Z,993
2022-09-02T13:01:01.974Z,991
2022-09-02T13:02:03.521Z,992
2022-09-02T13:03:05.675Z,992
2022-09-02T13:04:08.135Z,992
2022-09-02T13:05:10.655Z,965
2022-09-02T13:06:12.981Z,992
2022-09-02T13:07:15.213Z,992
2022-09-02T13:08:17.553Z,992
2022-09-02T13:10:22.473Z,992
2022-09-02T13:11:25.092Z,992
2022-09-02T13:12:28.254Z,992
2022-09-02T13:13:29.893Z,992
2022-09-02T13:14:32.013Z,992
2022-09-02T13:15:34.762Z,992
2022-09-02T13:16:36.483Z,992
2022-09-02T13:17:38.413Z,992
2022-09-02T13:18:39.414Z,992
2022-09-02T13:19:41.433Z,992
2022-09-02T13:20:44.567Z,992
2022-09-02T13:21:47.263Z,992
2022-09-02T13:22:49.822Z,993
2022-09-02T13:23:52.614Z,992
2022-09-02T13:24:55.515Z,993
2022-09-02T13:25:57.846Z,992
2022-09-02T13:27:00.673Z,992
2022-09-02T13:28:02.916Z,992
2022-09-02T13:29:04.598Z,993
2022-09-02T13:30:06.894Z,992
2022-09-02T13:31:08.651Z,992
2022-09-02T13:32:10.977Z,992
2022-09-02T13:33:12.491Z,992
2022-09-02T13:34:14.354Z,992
2022-09-02T13:35:15.514Z,992
2022-09-02T13:36:18.553Z,992
2022-09-02T13:37:21.152Z,872
2022-09-02T13:38:25.939Z,827
2022-09-02T13:39:27.553Z,-1
2022-09-02T13:40:29.693Z,-1
2022-09-02T13:41:32.673Z,-1
2022-09-02T13:42:33.837Z,-1
2022-09-02T13:43:35.573Z,-1
2022-09-02T13:44:37.878Z,-1
2022-09-02T13:45:39.657Z,-1
2022-09-02T13:46:42.733Z,899
2022-09-02T13:47:44.842Z,636
2022-09-02T13:48:46.414Z,672
2022-09-02T13:49:48.134Z,877
2022-09-02T13:50:49.535Z,840
2022-09-02T13:51:51.736Z,794
2022-09-02T13:54:57.893Z,-1
2022-09-02T13:55:59.453Z,-1
2022-09-02T13:57:01.882Z,-1
2022-09-02T13:58:03.796Z,-1
2022-09-02T13:59:05.562Z,-1
2022-09-02T14:00:07.490Z,-1
2022-09-02T14:01:09.791Z,-1
2022-09-02T14:02:12.014Z,-1
2022-09-02T14:03:13.643Z,-1
2022-09-02T14:04:15.772Z,-1
2022-09-02T14:05:17.561Z,-1
2022-09-02T14:06:19.579Z,-1
2022-09-02T14:07:21.613Z,-1
2022-09-02T14:08:23.650Z,-1
2022-09-02T14:09:24.434Z,-1
2022-09-02T14:10:25.434Z,-1
2022-09-02T14:11:26.634Z,-1
2022-09-02T14:12:28.521Z,-1
2022-09-02T14:13:30.693Z,-1
2022-09-02T14:14:32.476Z,-1
2022-09-02T14:15:33.980Z,-1
2022-09-02T14:16:35.532Z,-1
2022-09-02T14:17:37.544Z,-1
2022-09-02T14:18:39.393Z,-1
2022-09-02T14:19:41.814Z,-1
2022-09-02T14:20:43.354Z,-1
2022-09-02T14:21:44.446Z,-1
2022-09-02T14:22:45.551Z,-1
2022-09-02T14:23:47.481Z,-1
2022-09-02T14:24:48.522Z,-1
2022-09-02T14:25:50.567Z,-1
2022-09-02T14:26:52.508Z,-1
2022-09-02T14:27:54.401Z,-1
2022-09-02T14:28:55.404Z,-1
2022-09-02T14:29:56.941Z,-1
2022-09-02T14:30:58.620Z,-1